Time;durP1;ratioP1;P1;durP2;ratioP2;P2;SDS_P1;SDS_P2;PMS_P1;PMS_P2;Temp;Humidity;BMP_temperature;BMP_pressure;BME280_temperature;BME280_humidity;BME280_pressure;Samples;Min_cycle;Max_cycle;Signal;HPM_P1;HPM_P2
2021/11/19 00:02:11;;;;;;;1.27;1.17;;;4.00;99.90;;;;;;5066366;28;20204;-70
2021/11/19 00:04:37;;;;;;;0.70;0.70;;;4.00;99.90;;;;;;5063532;28;20295;-69
2021/11/19 00:07:03;;;;;;;0.60;0.60;;;4.00;99.90;;;;;;5054595;28;20288;-69
2021/11/19 00:09:30;;;;;;;0.50;0.50;;;4.00;99.90;;;;;;5054170;28;20213;-70
2021/11/19 00:11:56;;;;;;;0.52;0.52;;;4.00;99.90;;;;;;5055237;28;20211;-69
2021/11/19 00:14:23;;;;;;;1.42;1.33;;;4.00;99.90;;;;;;5066020;28;20743;-70
2021/11/19 00:17:00;;;;;;;0.60;0.60;;;4.00;99.90;;;;;;5070581;28;20280;-70
2021/11/19 00:19:26;;;;;;;0.80;0.80;;;4.00;99.90;;;;;;5060110;28;20236;-69
2021/11/19 00:21:52;;;;;;;0.60;0.60;;;4.00;99.90;;;;;;5071588;28;20886;-69
2021/11/19 00:24:19;;;;;;;0.65;0.65;;;4.00;99.90;;;;;;5071564;28;21951;-69
2021/11/19 00:26:45;;;;;;;0.70;0.70;;;4.00;99.90;;;;;;5071816;28;20220;-70
2021/11/19 00:29:13;;;;;;;0.47;0.47;;;4.00;99.90;;;;;;5072299;28;20595;-68
2021/11/19 00:31:40;;;;;;;0.80;0.80;;;4.00;99.90;;;;;;5053936;28;20233;-70
2021/11/19 00:34:06;;;;;;;2.58;1.42;;;4.10;99.90;;;;;;5072058;28;20630;-69
2021/11/19 00:36:34;;;;;;;1.00;0.93;;;4.10;99.90;;;;;;5054043;28;20560;-69
2021/11/19 00:39:05;;;;;;;0.70;0.70;;;4.00;99.90;;;;;;5071851;28;20219;-70
2021/11/19 00:41:31;;;;;;;0.70;0.70;;;4.10;99.90;;;;;;5068623;28;20299;-71
2021/11/19 00:44:00;;;;;;;0.65;0.65;;;4.10;99.90;;;;;;5068689;28;20522;-69
2021/11/19 00:46:26;;;;;;;0.50;0.50;;;4.10;99.90;;;;;;5069562;28;20228;-70
2021/11/19 00:48:51;;;;;;;0.60;0.60;;;4.00;99.90;;;;;;5069871;28;20208;-69
2021/11/19 00:51:25;;;;;;;0.60;0.60;;;4.00;99.90;;;;;;5069871;28;20698;-69
2021/11/19 00:53:54;;;;;;;0.45;0.45;;;4.00;99.90;;;;;;5069449;28;20223;-69
2021/11/19 00:56:29;;;;;;;0.70;0.70;;;4.00;99.90;;;;;;5069431;28;20330;-69
2021/11/19 00:59:00;;;;;;;0.70;0.70;;;4.00;99.90;;;;;;5056825;28;20228;-70
2021/11/19 01:01:33;;;;;;;0.70;0.70;;;3.90;99.90;;;;;;5066674;28;20204;-69
2021/11/19 01:04:01;;;;;;;0.93;0.93;;;3.90;99.90;;;;;;5057346;28;20206;-70
2021/11/19 01:06:28;;;;;;;0.63;0.63;;;3.90;99.90;;;;;;5067876;28;20228;-69
2021/11/19 01:08:55;;;;;;;0.70;0.70;;;4.00;99.90;;;;;;5039425;28;20213;-69
2021/11/19 01:11:23;;;;;;;0.70;0.70;;;4.00;99.90;;;;;;5063620;28;20287;-70
2021/11/19 01:13:51;;;;;;;0.60;0.60;;;4.00;99.90;;;;;;5058295;28;20255;-70
2021/11/19 01:16:22;;;;;;;0.60;0.60;;;4.00;99.90;;;;;;5062956;28;20217;-70
2021/11/19 01:18:52;;;;;;;0.63;0.63;;;4.00;99.90;;;;;;5045222;28;20206;-69
2021/11/19 01:21:30;;;;;;;0.80;0.80;;;4.00;99.90;;;;;;5061651;28;20216;-68
2021/11/19 01:23:56;;;;;;;0.70;0.70;;;3.90;99.90;;;;;;5057090;28;20201;-69
2021/11/19 01:26:31;;;;;;;0.70;0.70;;;3.90;99.90;;;;;;5063462;28;20235;-69
2021/11/19 01:29:01;;;;;;;0.57;0.57;;;3.90;99.90;;;;;;5055968;28;20204;-69
2021/11/19 01:31:34;;;;;;;0.70;0.70;;;3.90;99.90;;;;;;5066403;28;20694;-69
2021/11/19 01:34:00;;;;;;;0.60;0.60;;;4.00;99.90;;;;;;5039269;28;20214;-69
2021/11/19 01:36:27;;;;;;;0.70;0.70;;;4.00;99.90;;;;;;5064681;28;20232;-69
2021/11/19 01:38:53;;;;;;;0.70;0.70;;;4.00;99.90;;;;;;5043614;28;20289;-69
2021/11/19 01:41:24;;;;;;;0.50;0.50;;;3.90;99.90;;;;;;5062641;28;20709;-70
2021/11/19 01:43:51;;;;;;;0.50;0.50;;;3.90;99.90;;;;;;5057691;28;20202;-70
2021/11/19 01:46:21;;;;;;;0.63;0.63;;;4.00;99.90;;;;;;5064777;28;20308;-69
2021/11/19 01:48:48;;;;;;;0.80;0.80;;;3.90;99.90;;;;;;5058197;28;20700;-70
2021/11/19 01:51:49;;;;;;;0.80;0.80;;;3.90;99.90;;;;;;5064510;28;20196;-69
2021/11/19 01:54:33;;;;;;;0.70;0.70;;;3.90;99.90;;;;;;5054235;28;20618;-69
2021/11/19 01:57:23;;;;;;;0.70;0.70;;;3.90;99.90;;;;;;5069231;28;20608;-70
2021/11/19 02:00:07;;;;;;;0.95;0.90;;;3.90;99.90;;;;;;5036148;28;20204;-69
2021/11/19 02:02:38;;;;;;;0.60;0.60;;;3.90;99.90;;;;;;5066729;28;20267;-69
2021/11/19 02:05:11;;;;;;;0.77;0.77;;;3.90;99.90;;;;;;5055403;28;20543;-69
2021/11/19 02:07:46;;;;;;;0.52;0.52;;;3.90;99.90;;;;;;5067085;28;20256;-69
2021/11/19 02:10:14;;;;;;;0.70;0.70;;;3.90;99.90;;;;;;5053050;28;20204;-69
2021/11/19 02:12:58;;;;;;;0.60;0.60;;;3.90;99.90;;;;;;5061513;28;20220;-70
2021/11/19 02:15:50;;;;;;;0.70;0.70;;;3.90;99.90;;;;;;5046927;28;20217;-69
2021/11/19 02:18:45;;;;;;;0.60;0.60;;;3.80;99.90;;;;;;5060521;28;20204;-69
2021/11/19 02:21:43;;;;;;;0.80;0.80;;;3.80;99.90;;;;;;5060108;28;20236;-69
2021/11/19 02:24:18;;;;;;;0.80;0.80;;;3.80;99.90;;;;;;5065600;28;20241;-69
2021/11/19 02:26:49;;;;;;;0.68;0.68;;;3.80;99.90;;;;;;5067991;28;20276;-69
2021/11/19 02:29:15;;;;;;;0.68;0.68;;;3.80;99.90;;;;;;5069130;28;20254;-69
2021/11/19 02:32:06;;;;;;;0.60;0.60;;;3.80;99.90;;;;;;5067742;28;20300;-70
2021/11/19 02:34:32;;;;;;;0.50;0.50;;;3.80;99.90;;;;;;5067695;28;20204;-69
2021/11/19 02:37:21;;;;;;;0.70;0.70;;;3.80;99.90;;;;;;5067663;28;20228;-69
2021/11/19 02:39:56;;;;;;;0.70;0.70;;;3.80;99.90;;;;;;5067755;28;20694;-69
2021/11/19 02:42:29;;;;;;;0.70;0.70;;;3.80;99.90;;;;;;5067923;28;20200;-70
2021/11/19 02:45:07;;;;;;;0.85;0.85;;;3.80;99.90;;;;;;5069633;28;20320;-69
2021/11/19 02:47:33;;;;;;;0.70;0.70;;;3.80;99.90;;;;;;5068475;28;20255;-69
2021/11/19 02:49:58;;;;;;;0.90;0.90;;;3.70;99.90;;;;;;5067556;28;20229;-69
2021/11/19 02:52:31;;;;;;;1.15;1.08;;;3.70;99.90;;;;;;5068496;28;20205;-69
2021/11/19 02:54:58;;;;;;;0.57;0.57;;;3.70;99.90;;;;;;5068579;28;20205;-69
2021/11/19 02:57:25;;;;;;;1.23;1.13;;;3.70;99.90;;;;;;5067047;28;20250;-69
2021/11/19 02:59:53;;;;;;;0.63;0.63;;;3.70;99.90;;;;;;5061698;28;20287;-69
2021/11/19 03:02:25;;;;;;;0.70;0.70;;;3.80;99.90;;;;;;5058299;28;20217;-70
2021/11/19 03:04:55;;;;;;;0.70;0.70;;;3.80;99.90;;;;;;5056633;28;20672;-70
2021/11/19 03:07:21;;;;;;;0.65;0.65;;;3.80;99.90;;;;;;5063169;28;20213;-70
2021/11/19 03:09:55;;;;;;;0.60;0.60;;;3.80;99.90;;;;;;5067185;28;20228;-69
2021/11/19 03:12:23;;;;;;;0.50;0.50;;;3.80;99.90;;;;;;5068031;28;20275;-72
2021/11/19 03:14:51;;;;;;;0.70;0.70;;;3.80;99.90;;;;;;5067159;28;20219;-70
2021/11/19 03:17:18;;;;;;;0.60;0.60;;;3.80;99.90;;;;;;5064778;28;20227;-69
2021/11/19 03:19:45;;;;;;;0.70;0.70;;;3.80;99.90;;;;;;5063302;28;20213;-69
2021/11/19 03:22:14;;;;;;;0.98;0.98;;;3.90;99.90;;;;;;5068098;28;20208;-70
2021/11/19 03:24:40;;;;;;;0.70;0.70;;;3.80;99.90;;;;;;5064293;28;20262;-70
2021/11/19 03:27:07;;;;;;;0.63;0.63;;;3.80;99.90;;;;;;5061015;28;20209;-70
2021/11/19 03:29:33;;;;;;;1.00;1.00;;;3.80;99.90;;;;;;5056500;28;20201;-69
2021/11/19 03:31:59;;;;;;;0.70;0.70;;;3.90;99.90;;;;;;5066915;28;20227;-69
2021/11/19 03:34:25;;;;;;;0.68;0.68;;;3.80;99.90;;;;;;5066766;28;20204;-70
2021/11/19 03:36:54;;;;;;;0.63;0.63;;;3.80;99.90;;;;;;5066822;28;20294;-70
2021/11/19 03:39:22;;;;;;;0.60;0.60;;;3.80;99.90;;;;;;5066565;28;20297;-70
2021/11/19 03:41:49;;;;;;;0.70;0.70;;;3.80;99.90;;;;;;5066591;28;20202;-69
2021/11/19 03:44:26;;;;;;;0.70;0.70;;;3.80;99.90;;;;;;5067936;28;20661;-69
2021/11/19 03:47:19;;;;;;;0.70;0.70;;;3.70;99.90;;;;;;5066505;28;20295;-69
2021/11/19 03:49:47;;;;;;;0.70;0.70;;;3.70;99.90;;;;;;5064696;28;20201;-69
2021/11/19 03:52:26;;;;;;;0.70;0.70;;;3.70;99.90;;;;;;5067779;28;20629;-70
2021/11/19 03:54:54;;;;;;;0.70;0.70;;;3.70;99.90;;;;;;5065093;28;20703;-69
2021/11/19 03:57:21;;;;;;;0.70;0.70;;;3.70;99.90;;;;;;5056380;28;20656;-70
2021/11/19 03:59:48;;;;;;;1.33;1.23;;;3.70;99.90;;;;;;5066537;28;20213;-69
2021/11/19 04:02:16;;;;;;;0.70;0.70;;;3.60;99.90;;;;;;5051655;28;20201;-69
2021/11/19 04:04:43;;;;;;;0.73;0.73;;;3.60;99.90;;;;;;5049504;28;20205;-69
2021/11/19 04:07:11;;;;;;;0.60;0.60;;;3.60;99.90;;;;;;5068001;28;20553;-69
2021/11/19 04:09:37;;;;;;;0.70;0.70;;;3.60;99.90;;;;;;5067841;28;20208;-71
2021/11/19 04:12:04;;;;;;;0.70;0.70;;;3.60;99.90;;;;;;5048790;28;20193;-70
2021/11/19 04:14:30;;;;;;;0.80;0.80;;;3.60;99.90;;;;;;5068016;28;20663;-70
2021/11/19 04:16:57;;;;;;;0.60;0.60;;;3.60;99.90;;;;;;5066846;28;20278;-69
2021/11/19 04:19:26;;;;;;;0.60;0.60;;;3.60;99.90;;;;;;5052324;28;20209;-69
2021/11/19 04:21:54;;;;;;;0.52;0.52;;;3.60;99.90;;;;;;5065248;28;20236;-69
2021/11/19 04:24:25;;;;;;;0.60;0.60;;;3.60;99.90;;;;;;5064910;28;20298;-69
2021/11/19 04:26:51;;;;;;;0.70;0.70;;;3.60;99.90;;;;;;5067226;28;20679;-69
2021/11/19 04:29:17;;;;;;;0.60;0.60;;;3.60;99.90;;;;;;5067413;28;20200;-69
2021/11/19 04:31:43;;;;;;;0.70;0.70;;;3.60;99.90;;;;;;5066032;28;20618;-69
2021/11/19 04:34:10;;;;;;;0.63;0.63;;;3.60;99.90;;;;;;5066265;28;20205;-70
2021/11/19 04:36:38;;;;;;;0.70;0.70;;;3.60;99.90;;;;;;5065993;28;20288;-69
2021/11/19 04:39:08;;;;;;;0.70;0.70;;;3.60;99.90;;;;;;5067254;28;20220;-69
2021/11/19 04:41:33;;;;;;;0.70;0.70;;;3.50;99.90;;;;;;5065983;28;20525;-69
2021/11/19 04:43:59;;;;;;;0.77;0.77;;;3.50;99.90;;;;;;5066166;28;20209;-69
2021/11/19 04:46:26;;;;;;;0.70;0.70;;;3.40;99.90;;;;;;5059598;28;20226;-69
2021/11/19 04:48:51;;;;;;;0.82;0.82;;;3.40;99.90;;;;;;5055945;28;20220;-69
2021/11/19 04:51:24;;;;;;;0.85;0.80;;;3.30;99.90;;;;;;5066939;28;20197;-69
2021/11/19 04:53:50;;;;;;;0.65;0.65;;;3.30;99.90;;;;;;5057585;28;20257;-68
2021/11/19 04:56:16;;;;;;;0.60;0.60;;;3.20;99.90;;;;;;5064595;28;20200;-68
2021/11/19 04:58:43;;;;;;;0.70;0.70;;;3.20;99.90;;;;;;5065951;28;20205;-69
2021/11/19 05:01:18;;;;;;;0.50;0.50;;;3.20;99.90;;;;;;5069553;28;20243;-69
2021/11/19 05:03:43;;;;;;;0.60;0.60;;;3.10;99.90;;;;;;5070809;28;20300;-69
2021/11/19 05:06:09;;;;;;;0.60;0.60;;;3.00;99.90;;;;;;5068411;28;20324;-68
2021/11/19 05:08:35;;;;;;;0.73;0.73;;;2.90;99.90;;;;;;5070134;28;20221;-69
2021/11/19 05:11:03;;;;;;;0.70;0.70;;;2.90;99.90;;;;;;5072082;28;20192;-69
2021/11/19 05:13:31;;;;;;;0.50;0.50;;;2.90;99.90;;;;;;5072081;28;20235;-69
2021/11/19 05:15:58;;;;;;;0.68;0.68;;;2.90;99.90;;;;;;5071878;28;20205;-69
2021/11/19 05:18:26;;;;;;;0.65;0.65;;;2.90;99.90;;;;;;5065998;28;20194;-68
2021/11/19 05:20:52;;;;;;;0.80;0.80;;;2.80;99.90;;;;;;5069262;28;20609;-68
2021/11/19 05:23:19;;;;;;;0.90;0.90;;;2.70;99.90;;;;;;5067943;28;20727;-68
2021/11/19 05:25:46;;;;;;;0.50;0.50;;;2.60;99.90;;;;;;5069429;28;20288;-68
2021/11/19 05:28:18;;;;;;;0.60;0.60;;;2.60;99.90;;;;;;5070477;28;20575;-68
2021/11/19 05:30:44;;;;;;;0.70;0.70;;;2.60;99.90;;;;;;5066819;28;20656;-68
2021/11/19 05:33:14;;;;;;;0.70;0.70;;;2.60;99.90;;;;;;5069245;28;20261;-68
2021/11/19 05:35:39;;;;;;;0.45;0.45;;;2.60;99.90;;;;;;5069181;28;20204;-68
2021/11/19 05:38:06;;;;;;;0.50;0.50;;;2.60;99.90;;;;;;5067518;28;20219;-69
2021/11/19 05:40:32;;;;;;;0.60;0.60;;;2.60;99.90;;;;;;5068936;28;20215;-69
2021/11/19 05:42:58;;;;;;;0.50;0.50;;;2.60;99.90;;;;;;5069093;28;20205;-69
2021/11/19 05:45:26;;;;;;;0.70;0.70;;;2.60;99.90;;;;;;5069942;28;20235;-69
2021/11/19 05:47:52;;;;;;;0.50;0.50;;;2.60;99.90;;;;;;5066424;28;20204;-69
2021/11/19 05:50:21;;;;;;;0.82;0.82;;;2.60;99.90;;;;;;5055741;28;20205;-69
2021/11/19 05:52:47;;;;;;;0.50;0.50;;;2.60;99.90;;;;;;5069018;28;20201;-69
2021/11/19 05:55:17;;;;;;;0.80;0.80;;;2.70;99.90;;;;;;5067187;28;20403;-69
2021/11/19 05:57:42;;;;;;;0.68;0.68;;;2.70;99.90;;;;;;5054438;28;20205;-68
2021/11/19 06:00:13;;;;;;;0.50;0.50;;;2.70;99.90;;;;;;5067572;28;20631;-69
2021/11/19 06:02:39;;;;;;;0.60;0.60;;;2.80;99.90;;;;;;5053922;28;20659;-68
2021/11/19 06:05:05;;;;;;;0.70;0.70;;;3.40;99.90;;;;;;5069591;28;20201;-69
2021/11/19 06:07:31;;;;;;;0.60;0.60;;;3.50;99.90;;;;;;5069472;28;20202;-68
2021/11/19 06:09:58;;;;;;;0.55;0.55;;;3.50;99.90;;;;;;5067536;28;20216;-68
2021/11/19 06:12:32;;;;;;;0.77;0.77;;;3.50;99.90;;;;;;5034087;28;20191;-69
2021/11/19 06:15:01;;;;;;;0.60;0.60;;;3.50;99.90;;;;;;5068888;28;20193;-68
2021/11/19 06:17:32;;;;;;;0.60;0.60;;;3.50;99.90;;;;;;5068731;28;20205;-69
2021/11/19 06:20:01;;;;;;;0.50;0.50;;;3.50;99.90;;;;;;5053881;28;20612;-68
2021/11/19 06:22:31;;;;;;;0.68;0.68;;;3.50;99.90;;;;;;5070531;28;20228;-68
2021/11/19 06:24:57;;;;;;;0.57;0.57;;;3.60;99.90;;;;;;5070966;28;20209;-70
2021/11/19 06:27:26;;;;;;;0.60;0.60;;;3.60;99.90;;;;;;5068464;28;20236;-68
2021/11/19 06:29:55;;;;;;;0.60;0.60;;;3.70;99.90;;;;;;5068191;28;20283;-68
2021/11/19 06:32:21;;;;;;;0.70;0.70;;;3.70;99.90;;;;;;5068942;28;20197;-69
2021/11/19 06:34:47;;;;;;;0.60;0.60;;;3.70;99.90;;;;;;5068044;28;20205;-68
2021/11/19 06:37:14;;;;;;;0.60;0.60;;;3.70;99.90;;;;;;5065452;28;20205;-68
2021/11/19 06:39:42;;;;;;;0.50;0.50;;;3.70;99.90;;;;;;5066467;28;20681;-71
2021/11/19 06:42:12;;;;;;;0.60;0.60;;;3.70;99.90;;;;;;5068967;28;20212;-69
2021/11/19 06:44:40;;;;;;;0.60;0.60;;;3.80;99.90;;;;;;5063647;28;20724;-69
2021/11/19 06:47:07;;;;;;;0.57;0.57;;;3.70;99.90;;;;;;5059799;28;20667;-69
2021/11/19 06:49:33;;;;;;;0.60;0.60;;;3.60;99.90;;;;;;5067448;28;20200;-75
2021/11/19 06:51:59;;;;;;;0.60;0.60;;;3.60;99.90;;;;;;5068696;28;20644;-75
2021/11/19 06:54:26;;;;;;;0.70;0.70;;;3.60;99.90;;;;;;5068545;28;20201;-74
2021/11/19 06:56:52;;;;;;;0.50;0.50;;;3.60;99.90;;;;;;5067440;28;20292;-76
2021/11/19 06:59:18;;;;;;;0.60;0.60;;;3.60;99.90;;;;;;5068737;28;20279;-70
2021/11/19 07:01:44;;;;;;;0.50;0.50;;;3.60;99.90;;;;;;5068203;28;20200;-69
2021/11/19 07:04:10;;;;;;;0.60;0.60;;;3.50;99.90;;;;;;5068549;28;20568;-71
2021/11/19 07:06:36;;;;;;;0.63;0.63;;;3.60;99.90;;;;;;5067317;28;20259;-70
2021/11/19 07:09:04;;;;;;;0.60;0.60;;;3.50;99.90;;;;;;5066950;28;20201;-70
2021/11/19 07:11:31;;;;;;;0.52;0.52;;;3.50;99.90;;;;;;5066359;28;20247;-69
2021/11/19 07:13:57;;;;;;;0.65;0.65;;;3.50;99.90;;;;;;5069702;28;20727;-69
2021/11/19 07:16:25;;;;;;;0.50;0.50;;;3.50;99.90;;;;;;5053040;28;20292;-69
2021/11/19 07:18:52;;;;;;;0.60;0.60;;;3.50;99.90;;;;;;5060291;28;20664;-70
2021/11/19 07:21:18;;;;;;;0.60;0.60;;;3.60;99.90;;;;;;5067760;28;20631;-69
2021/11/19 07:23:43;;;;;;;0.60;0.60;;;3.50;99.90;;;;;;5067179;28;20232;-70
2021/11/19 07:26:10;;;;;;;0.60;0.60;;;3.50;99.90;;;;;;5068074;28;20209;-69
2021/11/19 07:28:36;;;;;;;0.50;0.50;;;3.60;99.90;;;;;;5066855;28;20204;-69
2021/11/19 07:31:04;;;;;;;0.52;0.52;;;3.60;99.90;;;;;;5066957;28;20334;-69
2021/11/19 07:33:30;;;;;;;3.70;1.35;;;3.60;99.90;;;;;;5066769;28;20204;-69
2021/11/19 07:35:58;;;;;;;0.70;0.70;;;3.60;99.90;;;;;;5066557;28;20266;-70
2021/11/19 07:38:26;;;;;;;0.60;0.60;;;3.70;99.90;;;;;;5066732;28;20201;-69
2021/11/19 07:40:53;;;;;;;0.80;0.80;;;3.70;99.90;;;;;;5062939;28;20204;-70
2021/11/19 07:43:20;;;;;;;0.60;0.60;;;3.70;99.90;;;;;;5056169;28;20213;-70
2021/11/19 07:45:46;;;;;;;0.60;0.60;;;3.80;99.90;;;;;;5066599;28;20212;-69
2021/11/19 07:48:16;;;;;;;0.60;0.60;;;3.90;99.90;;;;;;5067699;28;20526;-70
2021/11/19 07:50:44;;;;;;;0.60;0.60;;;4.00;99.90;;;;;;5067601;28;20543;-70
2021/11/19 07:53:11;;;;;;;0.60;0.60;;;4.00;99.90;;;;;;5067638;28;20573;-69
2021/11/19 07:55:37;;;;;;;0.60;0.60;;;4.00;99.90;;;;;;5067318;28;20204;-69
2021/11/19 07:58:04;;;;;;;0.65;0.65;;;4.00;99.90;;;;;;5065142;28;20206;-69
2021/11/19 08:00:36;;;;;;;0.77;0.77;;;4.00;99.90;;;;;;5065922;28;20208;-69
2021/11/19 08:03:03;;;;;;;0.55;0.55;;;4.00;99.90;;;;;;5066140;28;20580;-68
2021/11/19 08:05:28;;;;;;;0.70;0.70;;;4.00;99.90;;;;;;5066531;28;20233;-69
2021/11/19 08:07:54;;;;;;;0.70;0.70;;;4.00;99.90;;;;;;5051113;28;20221;-69
2021/11/19 08:10:20;;;;;;;13.32;2.10;;;4.10;99.90;;;;;;5033661;28;20190;-69
2021/11/19 08:12:46;;;;;;;0.70;0.70;;;4.20;99.90;;;;;;5067809;28;20185;-69
2021/11/19 08:15:14;;;;;;;0.60;0.60;;;4.30;99.90;;;;;;5068001;28;20224;-70
2021/11/19 08:17:43;;;;;;;0.60;0.60;;;4.30;99.90;;;;;;5067232;28;20262;-70
2021/11/19 08:20:15;;;;;;;0.60;0.60;;;4.30;99.90;;;;;;5066229;28;20212;-69
2021/11/19 08:22:41;;;;;;;0.80;0.80;;;4.30;99.90;;;;;;5065954;28;20212;-69
2021/11/19 08:25:08;;;;;;;0.60;0.60;;;4.30;99.90;;;;;;5051679;28;20212;-69
2021/11/19 08:27:39;;;;;;;0.60;0.60;;;4.50;99.90;;;;;;5065692;28;20292;-70
2021/11/19 08:30:10;;;;;;;0.50;0.50;;;4.50;99.90;;;;;;5051824;28;20210;-69
2021/11/19 08:32:35;;;;;;;0.50;0.50;;;4.50;99.90;;;;;;5065067;28;20200;-69
2021/11/19 08:35:02;;;;;;;0.68;0.68;;;4.50;99.90;;;;;;5052977;28;20556;-68
2021/11/19 08:37:28;;;;;;;0.70;0.70;;;4.50;99.90;;;;;;5046049;28;20214;-69
2021/11/19 08:39:54;;;;;;;0.60;0.60;;;4.50;99.90;;;;;;5040640;28;20261;-70
2021/11/19 08:42:21;;;;;;;1.00;1.00;;;4.50;99.90;;;;;;5049759;28;20621;-70
2021/11/19 08:44:48;;;;;;;0.70;0.70;;;4.40;99.90;;;;;;5054844;28;20676;-71
2021/11/19 08:47:16;;;;;;;0.68;0.68;;;4.50;99.90;;;;;;5066963;28;20583;-72
2021/11/19 08:49:42;;;;;;;0.63;0.63;;;4.50;99.90;;;;;;5044765;28;20288;-71
2021/11/19 08:52:10;;;;;;;0.60;0.60;;;4.60;99.90;;;;;;5060192;28;20208;-71
2021/11/19 08:54:37;;;;;;;0.60;0.60;;;4.60;99.90;;;;;;5047242;28;20206;-71
2021/11/19 08:57:06;;;;;;;0.93;0.93;;;4.70;99.90;;;;;;5059930;28;20629;-70
2021/11/19 08:59:34;;;;;;;0.70;0.70;;;4.70;99.90;;;;;;5059628;28;20284;-70
2021/11/19 09:02:01;;;;;;;0.80;0.80;;;4.80;99.90;;;;;;5060173;28;20220;-70
2021/11/19 09:04:29;;;;;;;0.50;0.50;;;4.80;99.90;;;;;;5053250;28;20216;-70
2021/11/19 09:06:56;;;;;;;0.70;0.70;;;4.90;99.90;;;;;;5063929;28;20240;-70
2021/11/19 09:09:25;;;;;;;0.60;0.60;;;4.90;99.90;;;;;;5049885;28;20206;-70
2021/11/19 09:11:51;;;;;;;0.50;0.50;;;5.00;99.90;;;;;;5056104;28;20283;-69
2021/11/19 09:14:18;;;;;;;0.90;0.90;;;5.10;99.90;;;;;;5061487;28;20208;-70
2021/11/19 09:17:28;;;;;;;1.35;1.25;;;5.10;99.90;;;;;;5061067;28;20204;-69
2021/11/19 09:20:17;;;;;;;0.50;0.50;;;5.10;99.90;;;;;;5040517;28;20303;-70
2021/11/19 09:23:27;;;;;;;0.60;0.60;;;5.40;99.90;;;;;;5068828;28;20205;-69
2021/11/19 09:25:56;;;;;;;3.60;1.38;;;5.40;99.90;;;;;;5028554;28;20203;-70
2021/11/19 09:28:25;;;;;;;0.55;0.55;;;5.50;99.90;;;;;;5013531;28;20233;-70
2021/11/19 09:30:54;;;;;;;0.55;0.55;;;5.60;99.90;;;;;;5011917;28;20698;-71
2021/11/19 09:33:22;;;;;;;0.60;0.60;;;5.60;99.90;;;;;;5012985;28;20217;-71
2021/11/19 09:35:49;;;;;;;0.50;0.50;;;5.70;99.90;;;;;;5027846;28;20222;-70
2021/11/19 09:38:17;;;;;;;0.70;0.70;;;5.70;99.90;;;;;;4999979;28;20779;-70
2021/11/19 09:40:54;;;;;;;0.52;0.52;;;5.80;99.90;;;;;;5013000;28;20281;-71
2021/11/19 09:43:34;;;;;;;0.60;0.60;;;5.90;99.90;;;;;;4994662;28;20288;-71
2021/11/19 09:46:37;;;;;;;0.70;0.70;;;6.00;99.90;;;;;;4993524;28;20651;-70
2021/11/19 09:49:08;;;;;;;0.80;0.80;;;6.10;99.90;;;;;;5014723;28;20312;-71
2021/11/19 09:51:37;;;;;;;0.70;0.70;;;6.10;99.90;;;;;;5012587;28;20206;-70
2021/11/19 09:54:16;;;;;;;0.70;0.70;;;6.20;99.90;;;;;;4995135;28;20207;-70
2021/11/19 09:56:45;;;;;;;0.60;0.60;;;6.20;99.90;;;;;;5011386;28;20293;-71
2021/11/19 09:59:16;;;;;;;0.70;0.70;;;6.20;99.90;;;;;;5021109;28;20225;-71
2021/11/19 10:02:12;;;;;;;0.60;0.60;;;6.30;99.90;;;;;;5054050;28;20201;-71
2021/11/19 10:05:04;;;;;;;0.60;0.60;;;6.30;99.90;;;;;;5069632;28;20207;-71
2021/11/19 10:07:36;;;;;;;0.60;0.60;;;6.50;99.90;;;;;;5069712;28;20288;-71
2021/11/19 10:10:25;;;;;;;0.60;0.60;;;6.60;99.90;;;;;;5067192;28;20204;-72
2021/11/19 10:13:37;;;;;;;0.63;0.63;;;6.60;99.90;;;;;;5069501;28;20189;-71
2021/11/19 10:16:02;;;;;;;0.70;0.70;;;6.60;99.90;;;;;;5069635;28;20192;-71
2021/11/19 10:18:46;;;;;;;0.73;0.73;;;6.90;99.90;;;;;;5062150;28;20197;-70
2021/11/19 10:21:22;;;;;;;0.70;0.70;;;7.00;99.90;;;;;;5066973;28;20273;-70
2021/11/19 10:23:53;;;;;;;0.68;0.68;;;7.00;99.90;;;;;;5069328;28;20197;-71
2021/11/19 10:26:25;;;;;;;0.70;0.70;;;7.00;99.90;;;;;;5067995;28;20671;-71
2021/11/19 10:29:19;;;;;;;0.60;0.60;;;7.00;99.90;;;;;;5066827;28;20250;-70
2021/11/19 10:31:46;;;;;;;0.60;0.60;;;7.30;99.90;;;;;;5067854;28;20209;-70
2021/11/19 10:34:21;;;;;;;0.80;0.80;;;7.30;99.90;;;;;;5065644;28;20288;-70
2021/11/19 10:37:02;;;;;;;0.70;0.70;;;7.30;99.90;;;;;;5064927;28;20207;-70
2021/11/19 10:39:59;;;;;;;0.68;0.68;;;7.20;99.90;;;;;;5066998;28;20205;-71
2021/11/19 10:42:43;;;;;;;0.70;0.70;;;7.20;99.90;;;;;;5069227;28;20284;-70
2021/11/19 10:45:28;;;;;;;0.60;0.60;;;7.20;99.90;;;;;;5036240;28;20684;-71
2021/11/19 10:48:06;;;;;;;0.60;0.60;;;7.20;99.90;;;;;;5037578;28;20205;-71
2021/11/19 10:50:56;;;;;;;0.55;0.55;;;7.20;99.90;;;;;;5067635;28;20564;-71
2021/11/19 10:53:43;;;;;;;0.50;0.50;;;7.30;99.90;;;;;;5068432;28;20672;-71
2021/11/19 10:56:14;;;;;;;0.75;0.75;;;7.30;99.90;;;;;;5067656;28;20319;-71
2021/11/19 10:58:45;;;;;;;0.70;0.70;;;7.30;99.90;;;;;;5068269;28;20209;-71
2021/11/19 11:01:45;;;;;;;0.70;0.70;;;7.30;99.90;;;;;;5067353;28;20519;-72
2021/11/19 11:04:29;;;;;;;0.55;0.55;;;7.30;99.90;;;;;;5067647;28;20278;-70
2021/11/19 11:07:16;;;;;;;0.55;0.55;;;7.30;99.90;;;;;;5067364;28;20240;-70
2021/11/19 11:09:57;;;;;;;0.60;0.60;;;7.40;99.90;;;;;;5068392;28;20204;-72
2021/11/19 11:12:42;;;;;;;0.70;0.70;;;7.40;99.90;;;;;;5067239;28;20200;-71
2021/11/19 11:15:11;;;;;;;0.60;0.60;;;7.40;99.90;;;;;;5068301;28;20203;-70
2021/11/19 11:18:06;;;;;;;0.70;0.70;;;7.50;99.90;;;;;;5068108;28;20591;-70
2021/11/19 11:20:41;;;;;;;0.70;0.70;;;7.50;99.90;;;;;;5068075;28;20215;-70
2021/11/19 11:23:19;;;;;;;0.63;0.63;;;7.60;99.90;;;;;;5067769;28;20211;-71
2021/11/19 11:26:06;;;;;;;0.65;0.65;;;7.60;99.90;;;;;;5066453;28;20197;-71
2021/11/19 11:28:40;;;;;;;0.70;0.70;;;7.60;99.90;;;;;;5084949;28;20220;-70
2021/11/19 11:31:18;;;;;;;0.60;0.60;;;7.60;99.90;;;;;;5066878;28;20201;-70
2021/11/19 11:34:11;;;;;;;0.68;0.68;;;7.70;99.90;;;;;;5067780;28;20227;-71
2021/11/19 11:36:46;;;;;;;6.03;3.90;;;7.80;99.90;;;;;;5050963;28;20205;-71
2021/11/19 11:39:19;;;;;;;0.57;0.57;;;8.10;99.90;;;;;;5066880;28;20263;-71
2021/11/19 11:42:05;;;;;;;0.70;0.70;;;8.30;99.90;;;;;;5067737;28;20263;-71
2021/11/19 11:44:41;;;;;;;1.00;1.00;;;8.30;99.90;;;;;;5066635;28;20205;-71
2021/11/19 11:47:48;;;;;;;0.60;0.60;;;8.40;99.90;;;;;;5066775;28;20226;-71
2021/11/19 11:50:52;;;;;;;0.80;0.80;;;8.40;99.90;;;;;;5066425;28;20220;-71
2021/11/19 11:53:23;;;;;;;0.70;0.70;;;8.40;99.90;;;;;;5056410;28;20218;-71
2021/11/19 11:56:08;;;;;;;0.70;0.70;;;8.40;99.90;;;;;;5067535;28;20735;-72
2021/11/19 11:58:59;;;;;;;0.60;0.60;;;8.30;99.90;;;;;;5066447;28;20216;-71
2021/11/19 12:01:45;;;;;;;0.90;0.90;;;8.30;99.90;;;;;;5051406;28;20205;-70
2021/11/19 12:04:39;;;;;;;0.70;0.70;;;8.30;99.90;;;;;;5068891;28;20706;-72
2021/11/19 12:07:04;;;;;;;0.57;0.57;;;8.30;99.90;;;;;;5033017;28;21905;-71
2021/11/19 12:09:56;;;;;;;38.30;1.45;;;8.30;99.90;;;;;;5068268;28;20611;-71
2021/11/19 12:12:31;;;;;;;0.50;0.50;;;8.40;99.90;;;;;;5050773;28;20206;-72
2021/11/19 12:15:13;;;;;;;0.60;0.60;;;8.40;99.90;;;;;;5066365;28;20582;-71
2021/11/19 12:17:59;;;;;;;0.60;0.60;;;8.50;99.90;;;;;;5066117;28;20278;-71
2021/11/19 12:21:01;;;;;;;2.97;1.10;;;8.50;99.90;;;;;;5038975;28;20219;-71
2021/11/19 12:24:03;;;;;;;0.45;0.45;;;8.80;99.90;;;;;;5063350;28;20200;-71
2021/11/19 12:26:53;;;;;;;0.70;0.70;;;8.90;99.90;;;;;;5067141;28;20211;-71
2021/11/19 12:29:39;;;;;;;0.60;0.60;;;9.00;99.90;;;;;;5065662;28;20281;-71
2021/11/19 12:32:25;;;;;;;0.52;0.52;;;9.10;99.90;;;;;;5064787;28;20205;-71
2021/11/19 12:35:24;;;;;;;0.70;0.70;;;9.10;99.90;;;;;;5065952;28;20216;-70
2021/11/19 12:37:58;;;;;;;0.55;0.55;;;9.00;99.90;;;;;;5059510;28;20213;-71
2021/11/19 12:40:50;;;;;;;0.65;0.65;;;9.00;99.90;;;;;;5050086;28;20201;-71
2021/11/19 12:43:52;;;;;;;0.65;0.65;;;9.00;99.90;;;;;;5032779;28;20217;-71
2021/11/19 12:46:42;;;;;;;0.70;0.70;;;9.20;99.90;;;;;;5066895;28;20236;-71
2021/11/19 12:49:10;;;;;;;0.65;0.65;;;9.00;99.90;;;;;;5066544;28;20326;-71
2021/11/19 12:51:56;;;;;;;0.50;0.50;;;9.10;99.90;;;;;;5066061;28;20220;-71
2021/11/19 12:54:28;;;;;;;4.43;1.98;;;9.00;99.90;;;;;;5065575;28;20221;-71
2021/11/19 12:57:12;;;;;;;0.55;0.55;;;9.00;99.90;;;;;;5064482;28;20197;-71
2021/11/19 12:59:49;;;;;;;0.60;0.60;;;8.90;99.90;;;;;;5065867;28;20255;-70
2021/11/19 13:02:33;;;;;;;0.70;0.70;;;8.70;99.90;;;;;;5066901;28;20236;-70
2021/11/19 13:05:24;;;;;;;0.70;0.70;;;8.80;99.90;;;;;;5063598;28;20620;-70
2021/11/19 13:07:59;;;;;;;0.68;0.68;;;8.70;99.90;;;;;;5065805;28;20209;-71
2021/11/19 13:10:39;;;;;;;0.70;0.70;;;8.80;99.90;;;;;;5063303;28;20200;-71
2021/11/19 13:13:30;;;;;;;0.90;0.90;;;8.70;99.90;;;;;;5065850;28;20232;-71
2021/11/19 13:16:32;;;;;;;0.50;0.50;;;8.70;99.90;;;;;;5064826;28;20201;-71
2021/11/19 13:19:00;;;;;;;0.70;0.70;;;8.50;99.90;;;;;;5009744;28;20217;-71
2021/11/19 13:21:32;;;;;;;0.80;0.80;;;8.40;99.90;;;;;;5007785;28;20215;-71
2021/11/19 13:24:26;;;;;;;0.77;0.77;;;8.30;99.90;;;;;;5026821;28;20199;-71
2021/11/19 13:27:08;;;;;;;0.70;0.70;;;8.20;99.90;;;;;;5012707;28;20215;-72
2021/11/19 13:29:41;;;;;;;0.60;0.60;;;8.00;99.90;;;;;;5027135;28;20289;-71